Stateburg, South Carolina
Current Conditions -  °F | °C
As of 4:55 AM on Sunday 23 Nov 2014 (Local Time) from KSMS Reporting Station
Moderate Rain Moderate Rain  
Wind Chill: 50°   Ceiling: Unl
Heat Index: 50°   Visibility: 2mi
Dew Point: 48°   Wind: 0mph
Humidity: 94%   Direction: NA
Pressure: 30.23"   Gusts: NA
Location:  33.9242°N, 80.1986°W
Report Text: KSMS 230955Z AUTO 00000KT 2SM RA FEW003 10/09 A3023 RMK AO2
Loading
Personal Weather Stations






























Interactive Weather Map New forecast layout! Learn more

10-Day Weather Forecast

Advertisements
Track Severe Weather on mobile